SKW5491 KIAH-KMAF
Flight info
| Callsign | SKW5491 |
|---|---|
| Flight time | 1h 8m |
| Altitude | 36000 |
| Route | PITZZ5 CRGER JCT SJT MAF |
| Aircraft | CRJ9/M-SDFGIRWY/S |
Departure
| Time | 2026-04-14 15:24 |
|---|---|
| Airport | George Bush Intercontinental Airport (KIAH) |
Arrival
| Time | 2026-04-14 16:32 |
|---|---|
| Airport | Midland International Air and Space Port (KMAF) |
| Time | Latitude | Longitude | Altitude | Speed | Heading |
|---|---|---|---|---|---|
| 2026-04-14 14:54 | 29.98551 | -95.33153 | 104 ft | 0 kts | 271° |
| 2026-04-14 14:54 | 29.98551 | -95.33154 | 104 ft | 0 kts | 271° |
| 2026-04-14 15:07 | 29.98551 | -95.33143 | 96 ft | 4 kts | 275° |
| 2026-04-14 15:07 | 29.98545 | -95.33114 | 105 ft | 4 kts | 298° |
| 2026-04-14 15:08 | 29.98529 | -95.33090 | 104 ft | 4 kts | 328° |
| 2026-04-14 15:08 | 29.98507 | -95.33074 | 105 ft | 4 kts | 311° |
| 2026-04-14 15:08 | 29.98497 | -95.33050 | 105 ft | 4 kts | 254° |
| 2026-04-14 15:08 | 29.98511 | -95.33030 | 105 ft | 4 kts | 200° |
| 2026-04-14 15:09 | 29.98531 | -95.33026 | 104 ft | 4 kts | 180° |
| 2026-04-14 15:09 | 29.98549 | -95.33026 | 104 ft | 1 kts | 180° |
| 2026-04-14 15:15 | 29.98542 | -95.33026 | 105 ft | 3 kts | 179° |
| 2026-04-14 15:15 | 29.98501 | -95.33025 | 104 ft | 8 kts | 179° |
| 2026-04-14 15:15 | 29.98428 | -95.33024 | 105 ft | 13 kts | 178° |
| 2026-04-14 15:16 | 29.98337 | -95.33024 | 103 ft | 13 kts | 182° |
| 2026-04-14 15:16 | 29.98247 | -95.33036 | 105 ft | 13 kts | 216° |
| 2026-04-14 15:16 | 29.98226 | -95.33143 | 105 ft | 16 kts | 264° |
| 2026-04-14 15:16 | 29.98227 | -95.33282 | 105 ft | 19 kts | 270° |
| 2026-04-14 15:17 | 29.98227 | -95.33446 | 105 ft | 22 kts | 269° |
| 2026-04-14 15:17 | 29.98228 | -95.33637 | 105 ft | 25 kts | 274° |
| 2026-04-14 15:17 | 29.98244 | -95.33845 | 105 ft | 26 kts | 269° |
| 2026-04-14 15:17 | 29.98265 | -95.34047 | 105 ft | 25 kts | 301° |
| 2026-04-14 15:18 | 29.98302 | -95.34230 | 106 ft | 24 kts | 269° |
| 2026-04-14 15:18 | 29.98298 | -95.34417 | 105 ft | 23 kts | 276° |
| 2026-04-14 15:18 | 29.98324 | -95.34595 | 105 ft | 23 kts | 270° |
| 2026-04-14 15:18 | 29.98324 | -95.34775 | 105 ft | 22 kts | 269° |
| 2026-04-14 15:19 | 29.98324 | -95.34952 | 105 ft | 22 kts | 270° |
| 2026-04-14 15:19 | 29.98323 | -95.35127 | 105 ft | 22 kts | 273° |
| 2026-04-14 15:19 | 29.98427 | -95.35229 | 105 ft | 21 kts | 331° |
| 2026-04-14 15:19 | 29.98555 | -95.35308 | 105 ft | 21 kts | 333° |
| 2026-04-14 15:20 | 29.98684 | -95.35387 | 105 ft | 21 kts | 331° |
| 2026-04-14 15:20 | 29.98813 | -95.35466 | 104 ft | 21 kts | 332° |
| 2026-04-14 15:20 | 29.98941 | -95.35544 | 105 ft | 21 kts | 332° |
| 2026-04-14 15:20 | 29.99069 | -95.35625 | 105 ft | 21 kts | 314° |
| 2026-04-14 15:21 | 29.99097 | -95.35784 | 105 ft | 20 kts | 275° |
| 2026-04-14 15:21 | 29.99083 | -95.35944 | 105 ft | 20 kts | 248° |
| 2026-04-14 15:21 | 29.98995 | -95.36035 | 105 ft | 17 kts | 154° |
| 2026-04-14 15:21 | 29.98884 | -95.35970 | 106 ft | 18 kts | 166° |
| 2026-04-14 15:22 | 29.98805 | -95.36061 | 106 ft | 18 kts | 244° |
| 2026-04-14 15:22 | 29.98731 | -95.36110 | 106 ft | 0 kts | 153° |
| 2026-04-14 15:22 | 29.98730 | -95.36109 | 106 ft | 0 kts | 153° |
| 2026-04-14 15:22 | 29.98727 | -95.36108 | 104 ft | 0 kts | 152° |
| 2026-04-14 15:23 | 29.98644 | -95.36058 | 106 ft | 45 kts | 152° |
| 2026-04-14 15:23 | 29.98136 | -95.35746 | 103 ft | 120 kts | 152° |
| 2026-04-14 15:23 | 29.97238 | -95.35189 | 280 ft | 164 kts | 151° |
| 2026-04-14 15:24 | 29.96165 | -95.34695 | 1051 ft | 171 kts | 176° |
| 2026-04-14 15:24 | 29.95030 | -95.35255 | 1523 ft | 199 kts | 226° |
| 2026-04-14 15:24 | 29.94723 | -95.36767 | 2609 ft | 197 kts | 276° |
| 2026-04-14 15:24 | 29.94842 | -95.38127 | 4098 ft | 151 kts | 264° |
| 2026-04-14 15:25 | 29.94670 | -95.39322 | 4650 ft | 159 kts | 233° |
| 2026-04-14 15:25 | 29.93753 | -95.40095 | 5011 ft | 165 kts | 204° |
| 2026-04-14 15:25 | 29.92731 | -95.40646 | 5777 ft | 163 kts | 203° |
| 2026-04-14 15:25 | 29.91709 | -95.41187 | 6292 ft | 168 kts | 202° |
| 2026-04-14 15:26 | 29.90565 | -95.41802 | 6576 ft | 192 kts | 203° |
| 2026-04-14 15:26 | 29.89379 | -95.42483 | 7311 ft | 187 kts | 206° |
| 2026-04-14 15:26 | 29.88322 | -95.43341 | 7980 ft | 191 kts | 231° |
| 2026-04-14 15:26 | 29.87594 | -95.44651 | 8558 ft | 194 kts | 238° |
| 2026-04-14 15:27 | 29.86952 | -95.46009 | 9244 ft | 195 kts | 239° |
| 2026-04-14 15:27 | 29.86305 | -95.47390 | 9870 ft | 196 kts | 240° |
| 2026-04-14 15:27 | 29.85613 | -95.48853 | 10099 ft | 223 kts | 239° |
| 2026-04-14 15:27 | 29.84803 | -95.50529 | 10187 ft | 255 kts | 240° |
| 2026-04-14 15:28 | 29.83891 | -95.52426 | 10354 ft | 283 kts | 240° |
| 2026-04-14 15:28 | 29.82986 | -95.54500 | 10633 ft | 305 kts | 252° |
| 2026-04-14 15:28 | 29.82881 | -95.57006 | 10948 ft | 327 kts | 282° |
| 2026-04-14 15:28 | 29.83764 | -95.59495 | 11389 ft | 344 kts | 297° |
| 2026-04-14 15:29 | 29.84999 | -95.61917 | 11872 ft | 357 kts | 301° |
| 2026-04-14 15:29 | 29.86334 | -95.64370 | 12543 ft | 363 kts | 302° |
| 2026-04-14 15:29 | 29.87675 | -95.66849 | 13321 ft | 365 kts | 301° |
| 2026-04-14 15:29 | 29.88974 | -95.69382 | 14022 ft | 369 kts | 299° |
| 2026-04-14 15:30 | 29.90224 | -95.71937 | 14709 ft | 372 kts | 298° |
| 2026-04-14 15:30 | 29.91499 | -95.74541 | 15382 ft | 374 kts | 298° |
| 2026-04-14 15:30 | 29.92786 | -95.77160 | 16120 ft | 374 kts | 297° |
| 2026-04-14 15:30 | 29.94079 | -95.79775 | 16712 ft | 379 kts | 297° |
| 2026-04-14 15:31 | 29.95385 | -95.82440 | 17315 ft | 382 kts | 298° |
| 2026-04-14 15:31 | 29.96703 | -95.85111 | 17972 ft | 384 kts | 297° |
| 2026-04-14 15:31 | 29.98027 | -95.87811 | 18522 ft | 388 kts | 297° |
| 2026-04-14 15:31 | 29.99363 | -95.90528 | 19067 ft | 390 kts | 297° |
| 2026-04-14 15:32 | 30.00702 | -95.93254 | 19596 ft | 391 kts | 297° |
| 2026-04-14 15:32 | 30.02017 | -95.95935 | 20108 ft | 393 kts | 297° |
| 2026-04-14 15:32 | 30.03376 | -95.98704 | 20638 ft | 394 kts | 297° |
| 2026-04-14 15:32 | 30.04737 | -96.01465 | 21113 ft | 396 kts | 296° |
| 2026-04-14 15:33 | 30.06096 | -96.04235 | 21624 ft | 397 kts | 296° |
| 2026-04-14 15:33 | 30.07212 | -96.07130 | 22066 ft | 394 kts | 284° |
| 2026-04-14 15:33 | 30.07842 | -96.10208 | 22551 ft | 393 kts | 278° |
| 2026-04-14 15:33 | 30.08284 | -96.13339 | 22997 ft | 395 kts | 276° |
| 2026-04-14 15:34 | 30.08697 | -96.16481 | 23445 ft | 396 kts | 277° |
| 2026-04-14 15:34 | 30.09125 | -96.19638 | 23809 ft | 398 kts | 277° |
| 2026-04-14 15:34 | 30.09588 | -96.22796 | 24146 ft | 401 kts | 278° |
| 2026-04-14 15:34 | 30.10068 | -96.25941 | 24469 ft | 403 kts | 277° |
| 2026-04-14 15:35 | 30.10559 | -96.29140 | 24796 ft | 406 kts | 277° |
| 2026-04-14 15:35 | 30.11057 | -96.32364 | 25123 ft | 408 kts | 277° |
| 2026-04-14 15:35 | 30.11557 | -96.35609 | 25441 ft | 411 kts | 277° |
| 2026-04-14 15:35 | 30.12055 | -96.38870 | 25748 ft | 413 kts | 277° |
| 2026-04-14 15:36 | 30.12555 | -96.42146 | 26063 ft | 415 kts | 277° |
| 2026-04-14 15:36 | 30.13056 | -96.45433 | 26354 ft | 418 kts | 277° |
| 2026-04-14 15:36 | 30.13562 | -96.48754 | 26722 ft | 418 kts | 277° |
| 2026-04-14 15:36 | 30.14067 | -96.52071 | 26998 ft | 420 kts | 277° |
| 2026-04-14 15:37 | 30.14572 | -96.55406 | 27296 ft | 422 kts | 277° |
| 2026-04-14 15:37 | 30.15074 | -96.58717 | 27569 ft | 424 kts | 277° |
| 2026-04-14 15:37 | 30.15586 | -96.62103 | 27855 ft | 426 kts | 277° |
| 2026-04-14 15:37 | 30.16096 | -96.65488 | 28137 ft | 428 kts | 277° |
| 2026-04-14 15:38 | 30.16608 | -96.68887 | 28415 ft | 430 kts | 277° |
| 2026-04-14 15:38 | 30.17117 | -96.72274 | 28689 ft | 432 kts | 277° |
| 2026-04-14 15:38 | 30.17633 | -96.75704 | 28948 ft | 434 kts | 277° |
| 2026-04-14 15:38 | 30.18150 | -96.79154 | 29210 ft | 436 kts | 276° |
| 2026-04-14 15:39 | 30.18667 | -96.82615 | 29455 ft | 437 kts | 276° |
| 2026-04-14 15:39 | 30.19185 | -96.86075 | 29847 ft | 436 kts | 276° |
| 2026-04-14 15:39 | 30.19704 | -96.89540 | 30086 ft | 438 kts | 276° |
| 2026-04-14 15:39 | 30.20223 | -96.93029 | 30287 ft | 439 kts | 276° |
| 2026-04-14 15:40 | 30.20738 | -96.96515 | 30472 ft | 441 kts | 276° |
| 2026-04-14 15:40 | 30.21081 | -96.98831 | 30586 ft | 441 kts | 276° |
| 2026-04-14 15:40 | 30.21603 | -97.02349 | 30743 ft | 443 kts | 276° |
| 2026-04-14 15:40 | 30.22290 | -97.07011 | 30969 ft | 445 kts | 276° |
| 2026-04-14 15:41 | 30.22815 | -97.10540 | 31117 ft | 446 kts | 276° |
| 2026-04-14 15:41 | 30.23343 | -97.14074 | 31249 ft | 447 kts | 276° |
| 2026-04-14 15:41 | 30.24225 | -97.19987 | 31385 ft | 448 kts | 276° |
| 2026-04-14 15:42 | 30.24753 | -97.23539 | 31518 ft | 449 kts | 276° |
| 2026-04-14 15:42 | 30.25275 | -97.27065 | 31645 ft | 450 kts | 276° |
| 2026-04-14 15:42 | 30.26337 | -97.34250 | 31908 ft | 451 kts | 276° |
| 2026-04-14 15:43 | 30.26863 | -97.37818 | 32081 ft | 450 kts | 276° |
| 2026-04-14 15:43 | 30.27387 | -97.41369 | 32283 ft | 449 kts | 276° |
| 2026-04-14 15:43 | 30.27910 | -97.44932 | 32454 ft | 448 kts | 276° |
| 2026-04-14 15:43 | 30.28433 | -97.48501 | 32617 ft | 448 kts | 276° |
| 2026-04-14 15:44 | 30.28951 | -97.52039 | 32841 ft | 447 kts | 276° |
| 2026-04-14 15:44 | 30.29462 | -97.55543 | 33009 ft | 447 kts | 276° |
| 2026-04-14 15:44 | 30.29980 | -97.59103 | 33183 ft | 446 kts | 276° |
| 2026-04-14 15:44 | 30.30495 | -97.62621 | 33382 ft | 445 kts | 276° |
| 2026-04-14 15:45 | 30.31011 | -97.66171 | 33551 ft | 444 kts | 276° |
| 2026-04-14 15:45 | 30.31518 | -97.69685 | 33700 ft | 443 kts | 275° |
| 2026-04-14 15:45 | 30.32058 | -97.73201 | 33869 ft | 444 kts | 277° |
| 2026-04-14 15:45 | 30.32748 | -97.76711 | 34004 ft | 445 kts | 280° |
| 2026-04-14 15:46 | 30.33534 | -97.80176 | 34152 ft | 445 kts | 281° |
| 2026-04-14 15:46 | 30.34330 | -97.83640 | 34290 ft | 445 kts | 280° |
| 2026-04-14 15:46 | 30.35083 | -97.87061 | 34439 ft | 444 kts | 279° |
| 2026-04-14 15:46 | 30.35816 | -97.90528 | 34572 ft | 443 kts | 279° |
| 2026-04-14 15:47 | 30.36549 | -97.94005 | 34710 ft | 442 kts | 279° |
| 2026-04-14 15:47 | 30.37280 | -97.97478 | 34845 ft | 442 kts | 279° |
| 2026-04-14 15:47 | 30.38006 | -98.00925 | 35023 ft | 440 kts | 279° |
| 2026-04-14 15:47 | 30.38724 | -98.04339 | 35093 ft | 440 kts | 279° |
| 2026-04-14 15:48 | 30.39446 | -98.07776 | 35218 ft | 439 kts | 279° |
| 2026-04-14 15:48 | 30.40165 | -98.11212 | 35339 ft | 438 kts | 279° |
| 2026-04-14 15:48 | 30.41602 | -98.18079 | 35493 ft | 438 kts | 279° |
| 2026-04-14 15:49 | 30.42318 | -98.21504 | 35616 ft | 437 kts | 279° |
| 2026-04-14 15:49 | 30.43036 | -98.24933 | 35699 ft | 437 kts | 279° |
| 2026-04-14 15:49 | 30.43749 | -98.28349 | 35818 ft | 437 kts | 279° |
| 2026-04-14 15:49 | 30.44451 | -98.31729 | 35892 ft | 436 kts | 278° |
| 2026-04-14 15:50 | 30.45505 | -98.38625 | 36043 ft | 433 kts | 273° |
| 2026-04-14 15:50 | 30.46144 | -98.45573 | 36038 ft | 433 kts | 271° |
| 2026-04-14 15:51 | 30.46724 | -98.49030 | 36041 ft | 442 kts | 285° |
| 2026-04-14 15:51 | 30.48184 | -98.52219 | 36076 ft | 455 kts | 298° |
| 2026-04-14 15:51 | 30.52267 | -98.57888 | 36083 ft | 458 kts | 298° |
| 2026-04-14 15:52 | 30.53778 | -98.61077 | 36090 ft | 446 kts | 285° |
| 2026-04-14 15:52 | 30.54646 | -98.64498 | 36091 ft | 440 kts | 277° |
| 2026-04-14 15:52 | 30.55552 | -98.71504 | 36098 ft | 437 kts | 270° |
| 2026-04-14 15:53 | 30.55852 | -98.78546 | 36091 ft | 437 kts | 268° |
| 2026-04-14 15:53 | 30.56065 | -98.85564 | 36059 ft | 437 kts | 268° |
| 2026-04-14 15:54 | 30.56499 | -98.96071 | 35992 ft | 432 kts | 268° |
| 2026-04-14 15:55 | 30.56785 | -99.03005 | 35948 ft | 429 kts | 268° |
| 2026-04-14 15:55 | 30.57067 | -99.09912 | 35918 ft | 427 kts | 268° |
| 2026-04-14 15:56 | 30.57344 | -99.16778 | 35892 ft | 425 kts | 268° |
| 2026-04-14 15:56 | 30.57612 | -99.23583 | 35865 ft | 424 kts | 268° |
| 2026-04-14 15:57 | 30.57880 | -99.30407 | 35831 ft | 422 kts | 268° |
| 2026-04-14 15:57 | 30.58143 | -99.37217 | 35807 ft | 422 kts | 268° |
| 2026-04-14 15:58 | 30.58402 | -99.44011 | 35801 ft | 421 kts | 268° |
| 2026-04-14 15:58 | 30.58659 | -99.50752 | 35817 ft | 420 kts | 268° |
| 2026-04-14 15:59 | 30.58908 | -99.57519 | 35815 ft | 419 kts | 268° |
| 2026-04-14 15:59 | 30.59154 | -99.64293 | 35810 ft | 420 kts | 268° |
| 2026-04-14 16:00 | 30.59830 | -99.71056 | 35818 ft | 432 kts | 283° |
| 2026-04-14 16:00 | 30.61133 | -99.74244 | 35827 ft | 444 kts | 295° |
| 2026-04-14 16:00 | 30.62822 | -99.77206 | 35832 ft | 446 kts | 296° |
| 2026-04-14 16:01 | 30.66288 | -99.83201 | 35808 ft | 447 kts | 296° |
| 2026-04-14 16:01 | 30.69832 | -99.89177 | 35790 ft | 449 kts | 297° |
| 2026-04-14 16:02 | 30.74056 | -99.94591 | 35747 ft | 470 kts | 317° |
| 2026-04-14 16:02 | 30.79884 | -99.98321 | 35725 ft | 479 kts | 323° |
| 2026-04-14 16:03 | 30.85448 | -100.02464 | 35724 ft | 470 kts | 315° |
| 2026-04-14 16:03 | 30.90661 | -100.06966 | 35703 ft | 471 kts | 316° |
| 2026-04-14 16:04 | 30.96068 | -100.11404 | 35680 ft | 472 kts | 317° |
| 2026-04-14 16:04 | 31.01403 | -100.15783 | 35658 ft | 473 kts | 317° |
| 2026-04-14 16:05 | 31.06786 | -100.20208 | 35634 ft | 473 kts | 317° |
| 2026-04-14 16:05 | 31.12179 | -100.24641 | 35609 ft | 474 kts | 318° |
| 2026-04-14 16:06 | 31.17582 | -100.29099 | 35597 ft | 476 kts | 318° |
| 2026-04-14 16:06 | 31.22926 | -100.33509 | 35606 ft | 478 kts | 318° |
| 2026-04-14 16:07 | 31.28361 | -100.37999 | 35598 ft | 479 kts | 318° |
| 2026-04-14 16:07 | 31.33550 | -100.42800 | 35571 ft | 467 kts | 304° |
| 2026-04-14 16:08 | 31.37426 | -100.48809 | 35604 ft | 462 kts | 298° |
| 2026-04-14 16:08 | 31.41078 | -100.54996 | 35309 ft | 464 kts | 294° |
| 2026-04-14 16:08 | 31.42533 | -100.58305 | 34946 ft | 463 kts | 286° |
| 2026-04-14 16:09 | 31.43759 | -100.61796 | 34554 ft | 463 kts | 284° |
| 2026-04-14 16:09 | 31.44932 | -100.65262 | 34169 ft | 449 kts | 284° |
| 2026-04-14 16:09 | 31.46105 | -100.68582 | 33735 ft | 433 kts | 285° |
| 2026-04-14 16:09 | 31.47286 | -100.71761 | 33274 ft | 420 kts | 285° |
| 2026-04-14 16:10 | 31.48438 | -100.74857 | 32806 ft | 408 kts | 285° |
| 2026-04-14 16:10 | 31.49556 | -100.77865 | 32351 ft | 398 kts | 285° |
| 2026-04-14 16:10 | 31.50650 | -100.80806 | 31904 ft | 389 kts | 285° |
| 2026-04-14 16:10 | 31.51718 | -100.83688 | 31456 ft | 380 kts | 285° |
| 2026-04-14 16:11 | 31.52763 | -100.86508 | 31032 ft | 373 kts | 285° |
| 2026-04-14 16:11 | 31.53787 | -100.89278 | 30618 ft | 366 kts | 285° |
| 2026-04-14 16:11 | 31.54793 | -100.92000 | 30213 ft | 363 kts | 285° |
| 2026-04-14 16:11 | 31.55798 | -100.94721 | 29785 ft | 371 kts | 285° |
| 2026-04-14 16:12 | 31.56831 | -100.97526 | 29340 ft | 378 kts | 285° |
| 2026-04-14 16:12 | 31.57885 | -101.00385 | 28908 ft | 384 kts | 285° |
| 2026-04-14 16:12 | 31.58953 | -101.03287 | 28481 ft | 390 kts | 286° |
| 2026-04-14 16:12 | 31.60038 | -101.06235 | 28074 ft | 396 kts | 286° |
| 2026-04-14 16:13 | 31.61136 | -101.09225 | 27659 ft | 401 kts | 286° |
| 2026-04-14 16:13 | 31.62239 | -101.12223 | 27251 ft | 406 kts | 286° |
| 2026-04-14 16:13 | 31.63361 | -101.15279 | 26859 ft | 410 kts | 287° |
| 2026-04-14 16:13 | 31.64496 | -101.18372 | 26446 ft | 415 kts | 287° |
| 2026-04-14 16:14 | 31.65640 | -101.21494 | 26048 ft | 418 kts | 287° |
| 2026-04-14 16:14 | 31.66795 | -101.24651 | 25646 ft | 422 kts | 287° |
| 2026-04-14 16:14 | 31.67958 | -101.27828 | 25260 ft | 425 kts | 287° |
| 2026-04-14 16:14 | 31.69130 | -101.31029 | 24868 ft | 429 kts | 287° |
| 2026-04-14 16:15 | 31.70310 | -101.34262 | 24488 ft | 432 kts | 287° |
| 2026-04-14 16:15 | 31.71497 | -101.37512 | 24107 ft | 435 kts | 287° |
| 2026-04-14 16:15 | 31.72691 | -101.40789 | 23727 ft | 437 kts | 288° |
| 2026-04-14 16:15 | 31.73888 | -101.44079 | 23327 ft | 439 kts | 288° |
| 2026-04-14 16:16 | 31.75091 | -101.47374 | 22879 ft | 430 kts | 288° |
| 2026-04-14 16:16 | 31.76231 | -101.50494 | 22430 ft | 413 kts | 288° |
| 2026-04-14 16:16 | 31.77342 | -101.53544 | 21971 ft | 399 kts | 287° |
| 2026-04-14 16:16 | 31.78414 | -101.56503 | 21521 ft | 387 kts | 287° |
| 2026-04-14 16:17 | 31.79453 | -101.59373 | 21071 ft | 376 kts | 287° |
| 2026-04-14 16:17 | 31.80467 | -101.62177 | 20636 ft | 368 kts | 287° |
| 2026-04-14 16:17 | 31.81457 | -101.64912 | 20230 ft | 360 kts | 287° |
| 2026-04-14 16:17 | 31.82429 | -101.67589 | 19809 ft | 353 kts | 287° |
| 2026-04-14 16:18 | 31.83384 | -101.70221 | 19420 ft | 346 kts | 287° |
| 2026-04-14 16:18 | 31.84320 | -101.72806 | 19019 ft | 341 kts | 287° |
| 2026-04-14 16:18 | 31.85238 | -101.75351 | 18632 ft | 336 kts | 287° |
| 2026-04-14 16:18 | 31.86141 | -101.77862 | 18239 ft | 331 kts | 287° |
| 2026-04-14 16:19 | 31.87036 | -101.80342 | 17797 ft | 327 kts | 287° |
| 2026-04-14 16:19 | 31.87920 | -101.82796 | 17359 ft | 324 kts | 287° |
| 2026-04-14 16:19 | 31.88786 | -101.85208 | 16928 ft | 321 kts | 287° |
| 2026-04-14 16:19 | 31.89656 | -101.87625 | 16507 ft | 319 kts | 287° |
| 2026-04-14 16:20 | 31.90517 | -101.90027 | 16087 ft | 318 kts | 287° |
| 2026-04-14 16:20 | 31.91377 | -101.92428 | 15675 ft | 316 kts | 287° |
| 2026-04-14 16:20 | 31.92223 | -101.94782 | 15272 ft | 315 kts | 287° |
| 2026-04-14 16:20 | 31.93079 | -101.97160 | 14877 ft | 314 kts | 288° |
| 2026-04-14 16:21 | 31.94336 | -101.99299 | 14457 ft | 326 kts | 312° |
| 2026-04-14 16:21 | 31.96270 | -102.00672 | 14320 ft | 329 kts | 336° |
| 2026-04-14 16:21 | 31.98487 | -102.01378 | 13956 ft | 332 kts | 343° |
| 2026-04-14 16:21 | 32.00766 | -102.01956 | 13454 ft | 336 kts | 345° |
| 2026-04-14 16:22 | 32.03103 | -102.02341 | 12964 ft | 339 kts | 351° |
| 2026-04-14 16:22 | 32.05456 | -102.02608 | 12483 ft | 340 kts | 352° |
| 2026-04-14 16:22 | 32.07818 | -102.02839 | 11988 ft | 338 kts | 352° |
| 2026-04-14 16:22 | 32.10121 | -102.03049 | 11515 ft | 334 kts | 352° |
| 2026-04-14 16:23 | 32.12417 | -102.03254 | 11018 ft | 327 kts | 353° |
| 2026-04-14 16:23 | 32.14664 | -102.03450 | 10532 ft | 319 kts | 352° |
| 2026-04-14 16:23 | 32.16849 | -102.03637 | 10051 ft | 312 kts | 353° |
| 2026-04-14 16:23 | 32.18993 | -102.03812 | 9527 ft | 305 kts | 352° |
| 2026-04-14 16:24 | 32.21092 | -102.03985 | 8999 ft | 299 kts | 353° |
| 2026-04-14 16:24 | 32.23156 | -102.04156 | 8471 ft | 292 kts | 350° |
| 2026-04-14 16:24 | 32.24996 | -102.04945 | 7944 ft | 276 kts | 318° |
| 2026-04-14 16:24 | 32.26096 | -102.06688 | 7455 ft | 262 kts | 285° |
| 2026-04-14 16:25 | 32.26121 | -102.08791 | 7004 ft | 261 kts | 252° |
| 2026-04-14 16:25 | 32.25376 | -102.10709 | 6588 ft | 258 kts | 243° |
| 2026-04-14 16:25 | 32.24481 | -102.12524 | 6121 ft | 253 kts | 237° |
| 2026-04-14 16:25 | 32.23429 | -102.14172 | 5631 ft | 249 kts | 231° |
| 2026-04-14 16:26 | 32.22290 | -102.15685 | 5269 ft | 242 kts | 229° |
| 2026-04-14 16:26 | 32.21166 | -102.17124 | 5101 ft | 234 kts | 228° |
| 2026-04-14 16:26 | 32.20078 | -102.18493 | 5011 ft | 223 kts | 228° |
| 2026-04-14 16:26 | 32.18998 | -102.19868 | 4955 ft | 237 kts | 230° |
| 2026-04-14 16:27 | 32.17877 | -102.21329 | 4949 ft | 234 kts | 227° |
| 2026-04-14 16:27 | 32.16541 | -102.22299 | 4897 ft | 222 kts | 198° |
| 2026-04-14 16:27 | 32.15105 | -102.22694 | 4986 ft | 199 kts | 193° |
| 2026-04-14 16:27 | 32.13792 | -102.22870 | 4983 ft | 183 kts | 181° |
| 2026-04-14 16:28 | 32.12544 | -102.22552 | 5011 ft | 197 kts | 171° |
| 2026-04-14 16:28 | 32.11146 | -102.22218 | 4996 ft | 204 kts | 174° |
| 2026-04-14 16:28 | 32.09782 | -102.21964 | 4846 ft | 194 kts | 175° |
| 2026-04-14 16:28 | 32.08464 | -102.21799 | 4654 ft | 186 kts | 178° |
| 2026-04-14 16:29 | 32.07183 | -102.21650 | 4445 ft | 188 kts | 178° |
| 2026-04-14 16:29 | 32.05842 | -102.21523 | 4326 ft | 197 kts | 178° |
| 2026-04-14 16:29 | 32.04943 | -102.21435 | 4233 ft | 191 kts | 178° |
| 2026-04-14 16:29 | 32.03673 | -102.21323 | 4000 ft | 176 kts | 178° |
| 2026-04-14 16:30 | 32.02508 | -102.21233 | 3758 ft | 161 kts | 177° |
| 2026-04-14 16:30 | 32.01424 | -102.21109 | 3501 ft | 152 kts | 177° |
| 2026-04-14 16:30 | 32.00367 | -102.20995 | 3384 ft | 157 kts | 175° |
| 2026-04-14 16:30 | 31.99304 | -102.20877 | 3396 ft | 146 kts | 176° |
| 2026-04-14 16:31 | 31.98293 | -102.20778 | 3274 ft | 145 kts | 176° |
| 2026-04-14 16:31 | 31.97278 | -102.20693 | 3130 ft | 146 kts | 177° |
| 2026-04-14 16:31 | 31.96278 | -102.20587 | 2957 ft | 139 kts | 177° |
| 2026-04-14 16:31 | 31.95450 | -102.20502 | 2866 ft | 100 kts | 175° |
| 2026-04-14 16:32 | 31.94884 | -102.20445 | 2867 ft | 66 kts | 175° |
| 2026-04-14 16:32 | 31.94526 | -102.20408 | 2864 ft | 40 kts | 175° |
| 2026-04-14 16:32 | 31.94273 | -102.20385 | 2865 ft | 33 kts | 174° |
| 2026-04-14 16:32 | 31.94070 | -102.20396 | 2864 ft | 26 kts | 197° |
| 2026-04-14 16:33 | 31.93931 | -102.20464 | 2863 ft | 8 kts | 204° |
| 2026-04-14 16:33 | 31.93883 | -102.20489 | 2863 ft | 7 kts | 205° |
| 2026-04-14 16:33 | 31.93842 | -102.20512 | 2864 ft | 6 kts | 205° |
| 2026-04-14 16:33 | 31.93813 | -102.20528 | 2865 ft | 4 kts | 203° |
| 2026-04-14 16:34 | 31.93790 | -102.20535 | 2866 ft | 4 kts | 183° |
| 2026-04-14 16:34 | 31.93757 | -102.20538 | 2866 ft | 6 kts | 206° |
| 2026-04-14 16:34 | 31.93735 | -102.20591 | 2867 ft | 10 kts | 256° |
| 2026-04-14 16:34 | 31.93744 | -102.20671 | 2866 ft | 10 kts | 304° |
| 2026-04-14 16:35 | 31.93752 | -102.20685 | 2866 ft | 0 kts | 305° |